sensor_id;sensor_type;location;lat;lon;timestamp;pressure;altitude;pressure_sealevel;temperature;humidity
33161;BME280;19522;45.656;11.302;2023-03-01T00:01:53;98770.53;;;2.55;66.26
33161;BME280;19522;45.656;11.302;2023-03-01T00:04:18;98754.50;;;2.65;66.06
33161;BME280;19522;45.656;11.302;2023-03-01T00:06:44;98754.63;;;2.42;66.59
33161;BME280;19522;45.656;11.302;2023-03-01T00:09:12;98733.31;;;2.08;67.37
33161;BME280;19522;45.656;11.302;2023-03-01T00:11:38;98753.00;;;2.18;67.78
33161;BME280;19522;45.656;11.302;2023-03-01T00:14:04;98736.00;;;2.08;67.66
33161;BME280;19522;45.656;11.302;2023-03-01T00:16:38;98747.06;;;2.36;67.33
33161;BME280;19522;45.656;11.302;2023-03-01T00:19:05;98745.72;;;2.42;66.94
33161;BME280;19522;45.656;11.302;2023-03-01T00:21:31;98738.97;;;2.26;67.40
33161;BME280;19522;45.656;11.302;2023-03-01T00:23:57;98737.03;;;1.84;68.62
33161;BME280;19522;45.656;11.302;2023-03-01T00:26:24;98743.06;;;2.09;68.26
33161;BME280;19522;45.656;11.302;2023-03-01T00:28:50;98736.47;;;2.13;67.78
33161;BME280;19522;45.656;11.302;2023-03-01T00:31:21;98735.09;;;1.86;68.68
33161;BME280;19522;45.656;11.302;2023-03-01T00:33:47;98738.75;;;1.85;68.99
33161;BME280;19522;45.656;11.302;2023-03-01T00:36:14;98733.63;;;1.82;68.89
33161;BME280;19522;45.656;11.302;2023-03-01T00:38:42;98728.25;;;1.94;68.22
33161;BME280;19522;45.656;11.302;2023-03-01T00:41:10;98721.22;;;1.81;68.32
33161;BME280;19522;45.656;11.302;2023-03-01T00:43:37;98731.56;;;1.75;69.28
33161;BME280;19522;45.656;11.302;2023-03-01T00:46:12;98721.34;;;1.80;69.50
33161;BME280;19522;45.656;11.302;2023-03-01T00:48:38;98715.78;;;1.71;69.21
33161;BME280;19522;45.656;11.302;2023-03-01T00:51:06;98697.22;;;1.91;68.23
33161;BME280;19522;45.656;11.302;2023-03-01T00:53:32;98679.28;;;1.70;68.48
33161;BME280;19522;45.656;11.302;2023-03-01T00:55:58;98697.75;;;1.74;68.60
33161;BME280;19522;45.656;11.302;2023-03-01T00:58:24;98630.84;;;1.30;68.94
33161;BME280;19522;45.656;11.302;2023-03-01T01:00:49;98659.09;;;1.55;68.41
33161;BME280;19522;45.656;11.302;2023-03-01T01:03:15;98652.38;;;1.61;68.18
33161;BME280;19522;45.656;11.302;2023-03-01T01:05:40;98676.69;;;1.69;68.52
33161;BME280;19522;45.656;11.302;2023-03-01T01:08:06;98626.19;;;1.20;69.67
33161;BME280;19522;45.656;11.302;2023-03-01T01:10:34;98672.25;;;1.47;70.28
33161;BME280;19522;45.656;11.302;2023-03-01T01:12:59;98579.06;;;0.97;69.74
33161;BME280;19522;45.656;11.302;2023-03-01T01:15:25;98662.22;;;1.28;70.34
33161;BME280;19522;45.656;11.302;2023-03-01T01:17:50;98636.72;;;1.01;71.22
33161;BME280;19522;45.656;11.302;2023-03-01T01:20:16;98594.63;;;1.03;70.53
33161;BME280;19522;45.656;11.302;2023-03-01T01:22:42;98629.97;;;1.18;70.75
33161;BME280;19522;45.656;11.302;2023-03-01T01:25:08;98658.06;;;1.12;71.73
33161;BME280;19522;45.656;11.302;2023-03-01T01:27:34;98657.84;;;1.04;73.08
33161;BME280;19522;45.656;11.302;2023-03-01T01:29:59;98652.50;;;1.15;72.99
33161;BME280;19522;45.656;11.302;2023-03-01T01:32:25;98643.25;;;1.19;72.17
33161;BME280;19522;45.656;11.302;2023-03-01T01:34:50;98642.00;;;1.23;72.31
33161;BME280;19522;45.656;11.302;2023-03-01T01:37:16;98622.69;;;1.20;71.78
33161;BME280;19522;45.656;11.302;2023-03-01T01:39:41;98637.78;;;1.21;71.86
33161;BME280;19522;45.656;11.302;2023-03-01T01:42:16;98633.41;;;1.08;72.96
33161;BME280;19522;45.656;11.302;2023-03-01T01:44:44;98593.19;;;0.76;73.21
33161;BME280;19522;45.656;11.302;2023-03-01T01:47:15;98617.03;;;0.90;73.90
33161;BME280;19522;45.656;11.302;2023-03-01T01:54:43;98618.31;;;1.19;72.97
33161;BME280;19522;45.656;11.302;2023-03-01T01:57:14;98601.53;;;1.17;72.10
33161;BME280;19522;45.656;11.302;2023-03-01T01:59:43;98607.13;;;1.25;72.40
33161;BME280;19522;45.656;11.302;2023-03-01T02:02:11;98598.59;;;1.20;72.36
33161;BME280;19522;45.656;11.302;2023-03-01T02:04:37;98606.63;;;1.20;72.66
33161;BME280;19522;45.656;11.302;2023-03-01T02:07:14;98607.94;;;1.37;71.88
33161;BME280;19522;45.656;11.302;2023-03-01T02:09:43;98603.69;;;1.34;71.85
33161;BME280;19522;45.656;11.302;2023-03-01T02:12:10;98597.78;;;1.52;71.03
33161;BME280;19522;45.656;11.302;2023-03-01T02:14:36;98590.16;;;1.47;70.86
33161;BME280;19522;45.656;11.302;2023-03-01T02:17:02;98567.59;;;1.29;71.29
33161;BME280;19522;45.656;11.302;2023-03-01T02:22:28;98520.09;;;0.98;71.38
33161;BME280;19522;45.656;11.302;2023-03-01T02:27:54;98566.88;;;1.80;69.15
33161;BME280;19522;45.656;11.302;2023-03-01T02:30:22;98546.19;;;1.29;70.33
33161;BME280;19522;45.656;11.302;2023-03-01T02:32:53;98576.75;;;1.15;71.39
33161;BME280;19522;45.656;11.302;2023-03-01T02:35:20;98527.25;;;0.42;73.33
33161;BME280;19522;45.656;11.302;2023-03-01T02:37:46;98558.72;;;0.61;73.98
33161;BME280;19522;45.656;11.302;2023-03-01T02:40:17;98574.84;;;0.71;74.24
33161;BME280;19522;45.656;11.302;2023-03-01T02:42:53;98575.44;;;0.98;72.97
33161;BME280;19522;45.656;11.302;2023-03-01T02:45:20;98575.56;;;0.96;72.58
33161;BME280;19522;45.656;11.302;2023-03-01T02:47:45;98578.47;;;1.04;72.90
33161;BME280;19522;45.656;11.302;2023-03-01T02:53:16;98569.69;;;1.14;72.59
33161;BME280;19522;45.656;11.302;2023-03-01T02:55:46;98569.03;;;1.21;72.11
33161;BME280;19522;45.656;11.302;2023-03-01T02:58:12;98571.41;;;1.15;72.16
33161;BME280;19522;45.656;11.302;2023-03-01T03:00:40;98566.63;;;1.18;71.86
33161;BME280;19522;45.656;11.302;2023-03-01T03:03:15;98551.78;;;1.26;72.13
33161;BME280;19522;45.656;11.302;2023-03-01T03:05:41;98539.78;;;1.41;71.49
33161;BME280;19522;45.656;11.302;2023-03-01T03:08:06;98545.44;;;1.27;72.13
33161;BME280;19522;45.656;11.302;2023-03-01T03:10:36;98544.84;;;1.55;70.94
33161;BME280;19522;45.656;11.302;2023-03-01T03:13:11;98533.41;;;1.53;70.99
33161;BME280;19522;45.656;11.302;2023-03-01T03:15:37;98535.38;;;1.51;71.04
33161;BME280;19522;45.656;11.302;2023-03-01T03:18:06;98532.06;;;1.27;72.08
33161;BME280;19522;45.656;11.302;2023-03-01T03:20:33;98530.38;;;1.26;72.57
33161;BME280;19522;45.656;11.302;2023-03-01T03:22:59;98528.41;;;1.28;72.41
33161;BME280;19522;45.656;11.302;2023-03-01T03:25:26;98524.38;;;1.33;72.43
33161;BME280;19522;45.656;11.302;2023-03-01T03:27:53;98526.16;;;1.44;72.20
33161;BME280;19522;45.656;11.302;2023-03-01T03:30:28;98522.75;;;1.42;72.23
33161;BME280;19522;45.656;11.302;2023-03-01T03:32:55;98516.09;;;1.36;72.39
33161;BME280;19522;45.656;11.302;2023-03-01T03:35:33;98521.25;;;1.49;72.44
33161;BME280;19522;45.656;11.302;2023-03-01T03:38:01;98515.31;;;1.46;72.59
33161;BME280;19522;45.656;11.302;2023-03-01T03:40:37;98449.72;;;1.30;71.52
33161;BME280;19522;45.656;11.302;2023-03-01T03:43:05;98511.75;;;1.78;70.93
33161;BME280;19522;45.656;11.302;2023-03-01T03:45:31;98486.47;;;1.70;70.48
33161;BME280;19522;45.656;11.302;2023-03-01T03:47:59;98489.22;;;1.38;71.72
33161;BME280;19522;45.656;11.302;2023-03-01T03:50:25;98509.97;;;1.46;72.30
33161;BME280;19522;45.656;11.302;2023-03-01T03:52:51;98515.88;;;1.28;72.83
33161;BME280;19522;45.656;11.302;2023-03-01T03:55:16;98500.94;;;1.26;73.59
33161;BME280;19522;45.656;11.302;2023-03-01T03:57:45;98510.28;;;0.99;75.05
33161;BME280;19522;45.656;11.302;2023-03-01T04:00:19;98506.91;;;0.74;76.83
33161;BME280;19522;45.656;11.302;2023-03-01T04:02:46;98503.50;;;1.16;75.42
33161;BME280;19522;45.656;11.302;2023-03-01T04:05:15;98497.31;;;1.15;75.44
33161;BME280;19522;45.656;11.302;2023-03-01T04:07:41;98507.09;;;1.37;74.95
33161;BME280;19522;45.656;11.302;2023-03-01T04:10:10;98491.22;;;1.24;74.93
33161;BME280;19522;45.656;11.302;2023-03-01T04:12:36;98504.13;;;1.19;75.76
33161;BME280;19522;45.656;11.302;2023-03-01T04:15:03;98499.22;;;1.24;75.60
33161;BME280;19522;45.656;11.302;2023-03-01T04:17:42;98497.44;;;1.25;75.92
33161;BME280;19522;45.656;11.302;2023-03-01T04:20:16;98500.91;;;1.37;75.39
33161;BME280;19522;45.656;11.302;2023-03-01T04:22:43;98485.81;;;1.36;75.57
33161;BME280;19522;45.656;11.302;2023-03-01T04:25:12;98468.50;;;1.40;75.46
33161;BME280;19522;45.656;11.302;2023-03-01T04:27:39;98484.19;;;1.66;74.89
33161;BME280;19522;45.656;11.302;2023-03-01T04:30:05;98486.88;;;1.66;74.52
33161;BME280;19522;45.656;11.302;2023-03-01T04:32:31;98453.94;;;1.54;74.31
33161;BME280;19522;45.656;11.302;2023-03-01T04:34:57;98467.66;;;1.61;74.23
33161;BME280;19522;45.656;11.302;2023-03-01T04:37:23;98484.53;;;1.73;73.86
33161;BME280;19522;45.656;11.302;2023-03-01T04:39:49;98482.63;;;1.84;73.53
33161;BME280;19522;45.656;11.302;2023-03-01T04:42:15;98459.75;;;1.80;73.26
33161;BME280;19522;45.656;11.302;2023-03-01T04:44:42;98421.72;;;1.55;72.95
33161;BME280;19522;45.656;11.302;2023-03-01T04:47:08;98462.72;;;1.77;73.16
33161;BME280;19522;45.656;11.302;2023-03-01T04:49:33;98452.31;;;1.63;73.26
33161;BME280;19522;45.656;11.302;2023-03-01T04:51:59;98423.47;;;1.45;73.16
33161;BME280;19522;45.656;11.302;2023-03-01T04:54:27;98484.03;;;1.89;73.29
33161;BME280;19522;45.656;11.302;2023-03-01T04:56:54;98475.75;;;1.92;73.21
33161;BME280;19522;45.656;11.302;2023-03-01T04:59:19;98463.88;;;1.84;72.85
33161;BME280;19522;45.656;11.302;2023-03-01T05:01:48;98479.16;;;1.94;72.88
33161;BME280;19522;45.656;11.302;2023-03-01T05:04:14;98478.34;;;2.03;72.36
33161;BME280;19522;45.656;11.302;2023-03-01T05:06:48;98476.56;;;2.13;71.87
33161;BME280;19522;45.656;11.302;2023-03-01T05:09:14;98470.31;;;2.03;71.44
33161;BME280;19522;45.656;11.302;2023-03-01T05:11:40;98462.81;;;1.97;71.60
33161;BME280;19522;45.656;11.302;2023-03-01T05:14:07;98479.00;;;1.95;72.09
33161;BME280;19522;45.656;11.302;2023-03-01T05:16:33;98483.63;;;1.93;72.66
33161;BME280;19522;45.656;11.302;2023-03-01T05:18:59;98488.19;;;2.02;72.84
33161;BME280;19522;45.656;11.302;2023-03-01T05:21:25;98480.78;;;2.06;72.23
33161;BME280;19522;45.656;11.302;2023-03-01T05:23:51;98488.59;;;1.98;72.78
33161;BME280;19522;45.656;11.302;2023-03-01T05:26:20;98489.94;;;1.82;73.57
33161;BME280;19522;45.656;11.302;2023-03-01T05:28:47;98485.03;;;1.88;73.41
33161;BME280;19522;45.656;11.302;2023-03-01T05:31:13;98471.53;;;1.68;74.05
33161;BME280;19522;45.656;11.302;2023-03-01T05:33:39;98404.81;;;1.34;74.35
33161;BME280;19522;45.656;11.302;2023-03-01T05:36:10;98488.03;;;1.73;74.79
33161;BME280;19522;45.656;11.302;2023-03-01T05:38:35;98489.50;;;1.77;74.83
33161;BME280;19522;45.656;11.302;2023-03-01T05:41:01;98464.53;;;1.55;75.17
33161;BME280;19522;45.656;11.302;2023-03-01T05:43:30;98485.44;;;1.62;75.94
33161;BME280;19522;45.656;11.302;2023-03-01T05:45:59;98487.84;;;1.65;75.30
33161;BME280;19522;45.656;11.302;2023-03-01T05:48:25;98469.13;;;1.44;75.42
33161;BME280;19522;45.656;11.302;2023-03-01T05:50:51;98456.03;;;1.29;75.78
33161;BME280;19522;45.656;11.302;2023-03-01T05:53:19;98423.06;;;1.07;76.71
33161;BME280;19522;45.656;11.302;2023-03-01T05:55:46;98426.69;;;1.06;76.78
33161;BME280;19522;45.656;11.302;2023-03-01T05:58:18;98492.00;;;1.36;77.30
33161;BME280;19522;45.656;11.302;2023-03-01T06:00:45;98492.53;;;1.51;77.23
33161;BME280;19522;45.656;11.302;2023-03-01T06:03:12;98453.94;;;1.33;77.12
33161;BME280;19522;45.656;11.302;2023-03-01T06:05:39;98484.25;;;1.54;77.21
33161;BME280;19522;45.656;11.302;2023-03-01T06:08:05;98487.84;;;1.65;77.26
33161;BME280;19522;45.656;11.302;2023-03-01T06:10:31;98492.47;;;1.84;76.76
33161;BME280;19522;45.656;11.302;2023-03-01T06:12:56;98490.59;;;1.96;76.18
33161;BME280;19522;45.656;11.302;2023-03-01T06:15:22;98484.25;;;1.97;75.62
33161;BME280;19522;45.656;11.302;2023-03-01T06:17:48;98485.84;;;2.09;75.21
33161;BME280;19522;45.656;11.302;2023-03-01T06:20:19;98483.66;;;2.24;74.28
33161;BME280;19522;45.656;11.302;2023-03-01T06:22:46;98416.47;;;1.75;74.09
33161;BME280;19522;45.656;11.302;2023-03-01T06:25:14;98449.19;;;2.10;74.27
33161;BME280;19522;45.656;11.302;2023-03-01T06:27:40;98473.41;;;2.29;74.22
33161;BME280;19522;45.656;11.302;2023-03-01T06:30:07;98478.50;;;2.42;73.85
33161;BME280;19522;45.656;11.302;2023-03-01T06:32:33;98442.44;;;2.15;74.53
33161;BME280;19522;45.656;11.302;2023-03-01T06:34:58;98461.72;;;2.40;74.30
33161;BME280;19522;45.656;11.302;2023-03-01T06:37:25;98465.13;;;2.52;74.04
33161;BME280;19522;45.656;11.302;2023-03-01T06:39:50;98457.38;;;2.49;73.81
33161;BME280;19522;45.656;11.302;2023-03-01T06:42:16;98464.81;;;2.45;74.00
33161;BME280;19522;45.656;11.302;2023-03-01T06:44:42;98459.06;;;2.50;74.27
33161;BME280;19522;45.656;11.302;2023-03-01T06:47:07;98464.03;;;2.55;74.28
33161;BME280;19522;45.656;11.302;2023-03-01T06:49:33;98459.25;;;2.68;74.00
33161;BME280;19522;45.656;11.302;2023-03-01T06:51:58;98456.88;;;2.75;73.80
33161;BME280;19522;45.656;11.302;2023-03-01T06:54:24;98453.34;;;2.84;73.34
33161;BME280;19522;45.656;11.302;2023-03-01T06:56:50;98436.13;;;2.77;73.28
33161;BME280;19522;45.656;11.302;2023-03-01T06:59:17;98454.50;;;3.01;72.72
33161;BME280;19522;45.656;11.302;2023-03-01T07:01:43;98454.66;;;3.09;72.66
33161;BME280;19522;45.656;11.302;2023-03-01T07:04:10;98445.59;;;3.01;72.43
33161;BME280;19522;45.656;11.302;2023-03-01T07:06:36;98449.00;;;3.13;71.69
33161;BME280;19522;45.656;11.302;2023-03-01T07:09:01;98424.25;;;3.09;71.32
33161;BME280;19522;45.656;11.302;2023-03-01T07:11:27;98409.03;;;3.09;70.96
33161;BME280;19522;45.656;11.302;2023-03-01T07:13:53;98430.91;;;3.24;70.94
33161;BME280;19522;45.656;11.302;2023-03-01T07:16:18;98424.69;;;3.34;70.68
33161;BME280;19522;45.656;11.302;2023-03-01T07:18:45;98420.31;;;3.33;70.27
33161;BME280;19522;45.656;11.302;2023-03-01T07:21:13;98435.94;;;3.77;69.07
33161;BME280;19522;45.656;11.302;2023-03-01T07:23:39;98417.28;;;3.65;68.64
33161;BME280;19522;45.656;11.302;2023-03-01T07:26:05;98427.00;;;3.76;69.18
33161;BME280;19522;45.656;11.302;2023-03-01T07:28:31;98437.66;;;3.58;70.36
33161;BME280;19522;45.656;11.302;2023-03-01T07:31:02;98424.53;;;3.35;70.91
33161;BME280;19522;45.656;11.302;2023-03-01T07:33:28;98442.47;;;3.45;71.17
33161;BME280;19522;45.656;11.302;2023-03-01T07:35:58;98427.25;;;3.16;73.20
33161;BME280;19522;45.656;11.302;2023-03-01T07:38:25;98432.44;;;3.37;72.94
33161;BME280;19522;45.656;11.302;2023-03-01T07:40:51;98397.41;;;3.28;72.54
33161;BME280;19522;45.656;11.302;2023-03-01T07:43:16;98420.53;;;3.69;71.96
33161;BME280;19522;45.656;11.302;2023-03-01T07:45:42;98404.94;;;3.82;71.34
33161;BME280;19522;45.656;11.302;2023-03-01T07:48:07;98388.94;;;3.90;70.38
33161;BME280;19522;45.656;11.302;2023-03-01T07:50:33;98384.13;;;4.22;69.33
33161;BME280;19522;45.656;11.302;2023-03-01T07:52:59;98370.53;;;4.51;67.38
33161;BME280;19522;45.656;11.302;2023-03-01T07:55:24;98388.44;;;4.79;67.65
33161;BME280;19522;45.656;11.302;2023-03-01T07:57:50;98340.31;;;4.58;67.46
33161;BME280;19522;45.656;11.302;2023-03-01T08:00:16;98331.16;;;4.87;66.18
33161;BME280;19522;45.656;11.302;2023-03-01T08:02:41;98366.56;;;5.36;65.22
33161;BME280;19522;45.656;11.302;2023-03-01T08:05:08;98347.47;;;5.48;64.21
33161;BME280;19522;45.656;11.302;2023-03-01T08:07:34;98346.66;;;5.55;64.48
33161;BME280;19522;45.656;11.302;2023-03-01T08:10:00;98337.34;;;5.50;64.51
33161;BME280;19522;45.656;11.302;2023-03-01T08:12:25;98335.44;;;5.68;64.33
33161;BME280;19522;45.656;11.302;2023-03-01T08:14:53;98340.66;;;5.96;63.40
33161;BME280;19522;45.656;11.302;2023-03-01T08:17:19;98345.31;;;6.20;62.18
33161;BME280;19522;45.656;11.302;2023-03-01T08:19:44;98332.94;;;6.61;60.63
33161;BME280;19522;45.656;11.302;2023-03-01T08:22:10;98287.78;;;6.96;58.18
33161;BME280;19522;45.656;11.302;2023-03-01T08:24:36;98328.25;;;7.37;57.55
33161;BME280;19522;45.656;11.302;2023-03-01T08:27:01;98339.59;;;7.16;54.94
33161;BME280;19522;45.656;11.302;2023-03-01T08:29:30;98337.56;;;7.26;57.13
33161;BME280;19522;45.656;11.302;2023-03-01T08:31:55;98338.41;;;7.02;55.57
33161;BME280;19522;45.656;11.302;2023-03-01T08:34:21;98283.03;;;6.57;54.46
33161;BME280;19522;45.656;11.302;2023-03-01T08:36:47;98330.13;;;6.95;55.41
33161;BME280;19522;45.656;11.302;2023-03-01T08:39:14;98334.00;;;7.09;55.28
33161;BME280;19522;45.656;11.302;2023-03-01T08:41:41;98305.81;;;7.12;55.03
33161;BME280;19522;45.656;11.302;2023-03-01T08:44:07;98314.56;;;7.47;53.85
33161;BME280;19522;45.656;11.302;2023-03-01T08:46:38;98320.16;;;7.29;53.67
33161;BME280;19522;45.656;11.302;2023-03-01T08:49:11;98272.56;;;7.11;53.79
33161;BME280;19522;45.656;11.302;2023-03-01T08:51:37;98298.00;;;7.58;53.39
33161;BME280;19522;45.656;11.302;2023-03-01T08:54:05;98292.91;;;7.63;53.42
33161;BME280;19522;45.656;11.302;2023-03-01T08:56:31;98306.47;;;7.47;51.67
33161;BME280;19522;45.656;11.302;2023-03-01T08:58:56;98303.78;;;7.22;52.55
33161;BME280;19522;45.656;11.302;2023-03-01T09:01:22;98308.34;;;7.22;54.01
33161;BME280;19522;45.656;11.302;2023-03-01T09:03:47;98260.09;;;6.69;51.98
33161;BME280;19522;45.656;11.302;2023-03-01T09:06:14;98305.00;;;7.03;51.59
33161;BME280;19522;45.656;11.302;2023-03-01T09:08:41;98297.22;;;6.75;51.67
33161;BME280;19522;45.656;11.302;2023-03-01T09:11:09;98294.38;;;7.10;52.25
33161;BME280;19522;45.656;11.302;2023-03-01T09:13:35;98296.19;;;7.34;51.90
33161;BME280;19522;45.656;11.302;2023-03-01T09:16:03;98272.69;;;7.43;51.57
33161;BME280;19522;45.656;11.302;2023-03-01T09:18:30;98285.81;;;7.62;52.31
33161;BME280;19522;45.656;11.302;2023-03-01T09:21:22;98283.94;;;7.71;51.75
33161;BME280;19522;45.656;11.302;2023-03-01T09:23:49;98275.91;;;7.94;50.24
33161;BME280;19522;45.656;11.302;2023-03-01T09:26:17;98262.53;;;8.01;49.10
33161;BME280;19522;45.656;11.302;2023-03-01T09:28:51;98191.75;;;7.58;49.65
33161;BME280;19522;45.656;11.302;2023-03-01T09:31:19;98252.88;;;8.07;50.40
33161;BME280;19522;45.656;11.302;2023-03-01T09:33:46;98230.59;;;7.97;49.72
33161;BME280;19522;45.656;11.302;2023-03-01T09:36:15;98251.75;;;8.24;50.18
33161;BME280;19522;45.656;11.302;2023-03-01T09:38:41;98255.56;;;8.38;48.96
33161;BME280;19522;45.656;11.302;2023-03-01T09:43:53;98209.66;;;7.90;47.64
33161;BME280;19522;45.656;11.302;2023-03-01T09:46:23;98242.97;;;8.46;46.53
33161;BME280;19522;45.656;11.302;2023-03-01T09:48:56;98229.94;;;8.72;46.44
33161;BME280;19522;45.656;11.302;2023-03-01T09:51:26;98206.84;;;8.85;45.60
33161;BME280;19522;45.656;11.302;2023-03-01T09:53:55;98220.06;;;9.18;44.57
33161;BME280;19522;45.656;11.302;2023-03-01T09:56:29;98213.66;;;8.96;43.61
33161;BME280;19522;45.656;11.302;2023-03-01T10:04:47;98199.94;;;8.97;44.45
33161;BME280;19522;45.656;11.302;2023-03-01T10:07:57;98203.25;;;9.23;44.03
33161;BME280;19522;45.656;11.302;2023-03-01T10:10:06;98204.09;;;9.23;43.71
33161;BME280;19522;45.656;11.302;2023-03-01T10:12:39;98202.72;;;9.42;44.59
33161;BME280;19522;45.656;11.302;2023-03-01T10:15:11;98172.41;;;9.39;45.26
33161;BME280;19522;45.656;11.302;2023-03-01T10:17:58;98196.50;;;9.78;43.60
33161;BME280;19522;45.656;11.302;2023-03-01T10:20:30;98195.50;;;10.01;43.60
33161;BME280;19522;45.656;11.302;2023-03-01T10:22:59;98189.78;;;9.59;43.32
33161;BME280;19522;45.656;11.302;2023-03-01T10:30:43;98205.78;;;9.54;43.24
33161;BME280;19522;45.656;11.302;2023-03-01T10:33:23;98214.19;;;9.44;43.58
33161;BME280;19522;45.656;11.302;2023-03-01T10:35:50;98210.16;;;9.25;44.67
33161;BME280;19522;45.656;11.302;2023-03-01T10:38:17;98206.44;;;9.26;44.51
33161;BME280;19522;45.656;11.302;2023-03-01T10:41:00;98217.44;;;9.40;44.54
33161;BME280;19522;45.656;11.302;2023-03-01T10:43:48;98213.06;;;9.39;45.02
33161;BME280;19522;45.656;11.302;2023-03-01T10:46:32;98222.28;;;9.14;44.50
33161;BME280;19522;45.656;11.302;2023-03-01T10:49:19;98218.00;;;9.20;45.42
33161;BME280;19522;45.656;11.302;2023-03-01T10:51:50;98217.97;;;9.05;45.53
33161;BME280;19522;45.656;11.302;2023-03-01T10:54:27;98229.13;;;9.10;45.92
33161;BME280;19522;45.656;11.302;2023-03-01T10:57:05;98218.53;;;9.00;45.68
33161;BME280;19522;45.656;11.302;2023-03-01T10:59:33;98209.31;;;9.25;45.24
33161;BME280;19522;45.656;11.302;2023-03-01T11:04:34;98204.91;;;9.24;46.62
33161;BME280;19522;45.656;11.302;2023-03-01T11:07:01;98186.31;;;9.06;45.31
33161;BME280;19522;45.656;11.302;2023-03-01T11:09:31;98207.00;;;9.22;44.65
33161;BME280;19522;45.656;11.302;2023-03-01T11:12:03;98211.75;;;9.19;45.75
33161;BME280;19522;45.656;11.302;2023-03-01T11:14:36;98171.44;;;8.86;45.31
33161;BME280;19522;45.656;11.302;2023-03-01T11:17:11;98220.13;;;9.10;45.29
33161;BME280;19522;45.656;11.302;2023-03-01T11:19:37;98226.50;;;9.17;45.84
33161;BME280;19522;45.656;11.302;2023-03-01T11:22:07;98221.53;;;9.06;44.98
33161;BME280;19522;45.656;11.302;2023-03-01T11:24:48;98244.19;;;9.43;45.20
33161;BME280;19522;45.656;11.302;2023-03-01T11:27:36;98254.25;;;9.19;45.27
33161;BME280;19522;45.656;11.302;2023-03-01T11:30:20;98252.38;;;9.19;45.45
33161;BME280;19522;45.656;11.302;2023-03-01T11:33:13;98260.47;;;9.04;46.09
33161;BME280;19522;45.656;11.302;2023-03-01T11:35:53;98211.13;;;8.56;45.93
33161;BME280;19522;45.656;11.302;2023-03-01T11:38:29;98272.78;;;8.69;46.76
33161;BME280;19522;45.656;11.302;2023-03-01T11:41:11;98278.53;;;8.74;46.52
33161;BME280;19522;45.656;11.302;2023-03-01T11:49:22;98320.94;;;8.19;49.35
33161;BME280;19522;45.656;11.302;2023-03-01T11:55:22;98340.16;;;8.24;48.90
33161;BME280;19522;45.656;11.302;2023-03-01T12:20:14;98379.31;;;8.45;54.72
33161;BME280;19522;45.656;11.302;2023-03-01T12:50:42;98378.22;;;8.22;61.88
33161;BME280;19522;45.656;11.302;2023-03-01T12:53:26;98373.59;;;8.39;63.31
33161;BME280;19522;45.656;11.302;2023-03-01T12:55:58;98372.47;;;8.25;61.74
33161;BME280;19522;45.656;11.302;2023-03-01T13:02:14;98362.94;;;7.98;62.04
33161;BME280;19522;45.656;11.302;2023-03-01T13:05:16;98354.13;;;7.96;61.29
33161;BME280;19522;45.656;11.302;2023-03-01T13:07:55;98345.34;;;8.02;62.59
33161;BME280;19522;45.656;11.302;2023-03-01T13:10:49;98330.13;;;8.01;64.22
33161;BME280;19522;45.656;11.302;2023-03-01T13:13:22;98306.81;;;8.00;65.02
33161;BME280;19522;45.656;11.302;2023-03-01T13:15:56;98286.34;;;8.06;63.17
33161;BME280;19522;45.656;11.302;2023-03-01T13:20:50;98302.03;;;8.10;62.81
33161;BME280;19522;45.656;11.302;2023-03-01T13:31:05;98229.50;;;7.74;54.88
33161;BME280;19522;45.656;11.302;2023-03-01T13:35:59;98300.44;;;8.24;55.29
33161;BME280;19522;45.656;11.302;2023-03-01T13:41:11;98292.47;;;8.23;55.43
33161;BME280;19522;45.656;11.302;2023-03-01T13:43:40;98291.94;;;8.36;54.20
33161;BME280;19522;45.656;11.302;2023-03-01T13:48:40;98263.44;;;8.17;51.77
33161;BME280;19522;45.656;11.302;2023-03-01T13:51:09;98275.38;;;8.31;53.15
33161;BME280;19522;45.656;11.302;2023-03-01T13:53:40;98298.38;;;8.35;53.01
33161;BME280;19522;45.656;11.302;2023-03-01T13:56:10;98298.25;;;7.88;53.58
33161;BME280;19522;45.656;11.302;2023-03-01T13:58:49;98294.13;;;8.01;55.41
33161;BME280;19522;45.656;11.302;2023-03-01T14:01:28;98292.00;;;8.19;53.46
33161;BME280;19522;45.656;11.302;2023-03-01T14:03:54;98292.09;;;8.34;53.55
33161;BME280;19522;45.656;11.302;2023-03-01T14:06:30;98273.38;;;8.24;53.42
33161;BME280;19522;45.656;11.302;2023-03-01T14:09:08;98259.13;;;7.68;54.19
33161;BME280;19522;45.656;11.302;2023-03-01T14:14:45;98301.19;;;8.10;52.99
33161;BME280;19522;45.656;11.302;2023-03-01T14:20:14;98309.19;;;7.95;54.93
33161;BME280;19522;45.656;11.302;2023-03-01T14:22:42;98293.69;;;7.80;54.76
33161;BME280;19522;45.656;11.302;2023-03-01T14:25:31;98296.44;;;7.72;55.80
33161;BME280;19522;45.656;11.302;2023-03-01T14:30:38;98294.06;;;7.69;58.80
33161;BME280;19522;45.656;11.302;2023-03-01T14:33:50;98291.63;;;7.35;60.18
33161;BME280;19522;45.656;11.302;2023-03-01T14:36:11;98294.50;;;7.33;61.24
33161;BME280;19522;45.656;11.302;2023-03-01T14:38:39;98285.56;;;7.24;63.01
33161;BME280;19522;45.656;11.302;2023-03-01T14:41:15;98278.78;;;7.37;63.53
33161;BME280;19522;45.656;11.302;2023-03-01T14:43:44;98249.06;;;7.37;63.84
33161;BME280;19522;45.656;11.302;2023-03-01T14:46:24;98194.63;;;7.00;64.51
33161;BME280;19522;45.656;11.302;2023-03-01T14:48:53;98246.88;;;7.40;64.99
33161;BME280;19522;45.656;11.302;2023-03-01T14:51:20;98249.13;;;7.68;64.46
33161;BME280;19522;45.656;11.302;2023-03-01T14:53:46;98211.50;;;7.58;65.70
33161;BME280;19522;45.656;11.302;2023-03-01T14:56:14;98228.47;;;7.84;65.58
33161;BME280;19522;45.656;11.302;2023-03-01T14:58:40;98215.97;;;7.83;66.86
33161;BME280;19522;45.656;11.302;2023-03-01T15:01:07;98232.84;;;7.85;67.48
33161;BME280;19522;45.656;11.302;2023-03-01T15:03:41;98220.38;;;7.75;67.45
33161;BME280;19522;45.656;11.302;2023-03-01T15:06:09;98221.34;;;7.91;67.87
33161;BME280;19522;45.656;11.302;2023-03-01T15:08:51;98207.72;;;7.76;68.53
33161;BME280;19522;45.656;11.302;2023-03-01T15:11:29;98220.38;;;7.84;69.50